sensor_id;sensor_type;location;lat;lon;timestamp;pressure;altitude;pressure_sealevel;temperature;humidity
68525;BME280;55524;51.380;13.372;2023-03-15T00:01:32;99893.31;;;0.69;98.09
68525;BME280;55524;51.380;13.372;2023-03-15T00:03:59;99897.63;;;0.70;98.25
68525;BME280;55524;51.380;13.372;2023-03-15T00:06:26;99901.16;;;0.64;99.17
68525;BME280;55524;51.380;13.372;2023-03-15T00:08:52;99902.06;;;0.57;99.81
68525;BME280;55524;51.380;13.372;2023-03-15T00:11:18;99898.56;;;0.58;99.61
68525;BME280;55524;51.380;13.372;2023-03-15T00:13:46;99909.03;;;0.52;100.00
68525;BME280;55524;51.380;13.372;2023-03-15T00:16:12;99906.41;;;0.47;100.00
68525;BME280;55524;51.380;13.372;2023-03-15T00:18:42;99912.50;;;0.43;100.00
68525;BME280;55524;51.380;13.372;2023-03-15T00:21:10;99910.81;;;0.44;100.00
68525;BME280;55524;51.380;13.372;2023-03-15T00:23:36;99912.53;;;0.42;100.00
68525;BME280;55524;51.380;13.372;2023-03-15T00:26:02;99916.84;;;0.49;100.00
68525;BME280;55524;51.380;13.372;2023-03-15T00:28:28;99926.31;;;0.58;100.00
68525;BME280;55524;51.380;13.372;2023-03-15T00:31:06;99927.19;;;0.55;100.00
68525;BME280;55524;51.380;13.372;2023-03-15T00:33:32;99928.88;;;0.62;100.00
68525;BME280;55524;51.380;13.372;2023-03-15T00:36:05;99941.00;;;0.66;100.00
68525;BME280;55524;51.380;13.372;2023-03-15T00:38:33;99945.34;;;0.61;100.00
68525;BME280;55524;51.380;13.372;2023-03-15T00:41:04;99949.69;;;0.64;100.00
68525;BME280;55524;51.380;13.372;2023-03-15T00:43:31;99952.25;;;0.68;100.00
68525;BME280;55524;51.380;13.372;2023-03-15T00:45:58;99953.19;;;0.57;100.00
68525;BME280;55524;51.380;13.372;2023-03-15T00:48:25;99959.25;;;0.56;100.00
68525;BME280;55524;51.380;13.372;2023-03-15T00:51:00;99959.22;;;0.59;100.00
68525;BME280;55524;51.380;13.372;2023-03-15T00:53:26;99958.34;;;0.61;100.00
68525;BME280;55524;51.380;13.372;2023-03-15T00:55:52;99958.31;;;0.66;100.00
68525;BME280;55524;51.380;13.372;2023-03-15T00:58:19;99961.81;;;0.62;100.00
68525;BME280;55524;51.380;13.372;2023-03-15T01:00:45;99961.78;;;0.63;100.00
68525;BME280;55524;51.380;13.372;2023-03-15T01:03:11;99966.16;;;0.61;100.00
68525;BME280;55524;51.380;13.372;2023-03-15T01:05:38;99971.34;;;0.64;100.00
68525;BME280;55524;51.380;13.372;2023-03-15T01:08:04;99967.88;;;0.64;100.00
68525;BME280;55524;51.380;13.372;2023-03-15T01:10:33;99969.59;;;0.68;100.00
68525;BME280;55524;51.380;13.372;2023-03-15T01:12:59;99971.31;;;0.66;100.00
68525;BME280;55524;51.380;13.372;2023-03-15T01:15:25;99966.13;;;0.66;99.64
68525;BME280;55524;51.380;13.372;2023-03-15T01:17:52;99973.03;;;0.67;100.00
68525;BME280;55524;51.380;13.372;2023-03-15T01:20:20;99966.97;;;0.71;100.00
68525;BME280;55524;51.380;13.372;2023-03-15T01:22:46;99971.31;;;0.66;100.00
68525;BME280;55524;51.380;13.372;2023-03-15T01:25:13;99971.34;;;0.63;100.00
68525;BME280;55524;51.380;13.372;2023-03-15T01:27:39;99968.72;;;0.63;100.00
68525;BME280;55524;51.380;13.372;2023-03-15T01:30:06;99961.84;;;0.60;100.00
68525;BME280;55524;51.380;13.372;2023-03-15T01:32:32;99975.72;;;0.56;100.00
68525;BME280;55524;51.380;13.372;2023-03-15T01:34:59;99973.97;;;0.60;100.00
68525;BME280;55524;51.380;13.372;2023-03-15T01:37:25;99979.19;;;0.57;100.00
68525;BME280;55524;51.380;13.372;2023-03-15T01:39:52;99976.59;;;0.57;100.00
68525;BME280;55524;51.380;13.372;2023-03-15T01:42:19;99979.19;;;0.52;100.00
68525;BME280;55524;51.380;13.372;2023-03-15T01:44:50;99980.06;;;0.49;100.00
68525;BME280;55524;51.380;13.372;2023-03-15T01:47:18;99982.69;;;0.48;100.00
68525;BME280;55524;51.380;13.372;2023-03-15T01:49:47;99987.91;;;0.45;100.00
68525;BME280;55524;51.380;13.372;2023-03-15T01:52:28;99985.31;;;0.39;100.00
68525;BME280;55524;51.380;13.372;2023-03-15T01:55:06;99979.25;;;0.40;100.00
68525;BME280;55524;51.380;13.372;2023-03-15T02:00:11;99989.66;;;0.37;100.00
68525;BME280;55524;51.380;13.372;2023-03-15T02:02:48;99989.63;;;0.35;100.00
68525;BME280;55524;51.380;13.372;2023-03-15T02:05:26;99987.06;;;0.31;100.00
68525;BME280;55524;51.380;13.372;2023-03-15T02:07:54;99993.13;;;0.30;100.00
68525;BME280;55524;51.380;13.372;2023-03-15T02:11:00;99987.94;;;0.23;100.00
68525;BME280;55524;51.380;13.372;2023-03-15T02:13:21;99994.03;;;0.15;100.00
68525;BME280;55524;51.380;13.372;2023-03-15T02:15:50;100000.09;;;0.15;100.00
68525;BME280;55524;51.380;13.372;2023-03-15T02:18:19;99994.06;;;0.10;100.00
68525;BME280;55524;51.380;13.372;2023-03-15T02:23:47;100005.28;;;0.15;100.00
68525;BME280;55524;51.380;13.372;2023-03-15T02:26:24;100004.44;;;0.13;100.00
68525;BME280;55524;51.380;13.372;2023-03-15T02:28:54;100003.59;;;0.13;100.00
68525;BME280;55524;51.380;13.372;2023-03-15T02:31:21;100011.38;;;0.10;100.00
68525;BME280;55524;51.380;13.372;2023-03-15T02:33:52;100009.63;;;0.10;100.00
68525;BME280;55524;51.380;13.372;2023-03-15T02:36:29;100009.63;;;0.10;100.00
68525;BME280;55524;51.380;13.372;2023-03-15T02:38:57;100014.00;;;0.08;100.00
68525;BME280;55524;51.380;13.372;2023-03-15T02:44:04;100027.81;;;0.03;100.00
68525;BME280;55524;51.380;13.372;2023-03-15T02:46:31;100026.13;;;0.05;100.00
68525;BME280;55524;51.380;13.372;2023-03-15T02:48:58;100019.19;;;0.02;100.00
68525;BME280;55524;51.380;13.372;2023-03-15T02:51:28;100022.66;;;0.01;100.00
68525;BME280;55524;51.380;13.372;2023-03-15T02:53:54;100022.66;;;-0.05;100.00
68525;BME280;55524;51.380;13.372;2023-03-15T02:56:21;100024.38;;;-0.09;100.00
68525;BME280;55524;51.380;13.372;2023-03-15T02:58:47;100023.53;;;-0.08;100.00
68525;BME280;55524;51.380;13.372;2023-03-15T03:01:14;100029.59;;;-0.12;100.00
68525;BME280;55524;51.380;13.372;2023-03-15T03:03:42;100050.34;;;-0.10;100.00
68525;BME280;55524;51.380;13.372;2023-03-15T03:06:10;100041.69;;;-0.12;100.00
68525;BME280;55524;51.380;13.372;2023-03-15T03:08:37;100055.56;;;-0.15;100.00
68525;BME280;55524;51.380;13.372;2023-03-15T03:11:04;100056.41;;;-0.14;100.00
68525;BME280;55524;51.380;13.372;2023-03-15T03:13:30;100055.56;;;-0.15;100.00
68525;BME280;55524;51.380;13.372;2023-03-15T03:15:57;100059.00;;;-0.20;100.00
68525;BME280;55524;51.380;13.372;2023-03-15T03:18:27;100061.59;;;-0.22;100.00
68525;BME280;55524;51.380;13.372;2023-03-15T03:20:57;100065.94;;;-0.26;100.00
68525;BME280;55524;51.380;13.372;2023-03-15T03:23:27;100065.91;;;-0.29;100.00
68525;BME280;55524;51.380;13.372;2023-03-15T03:25:54;100069.38;;;-0.33;100.00
68525;BME280;55524;51.380;13.372;2023-03-15T03:28:22;100072.00;;;-0.27;100.00
68525;BME280;55524;51.380;13.372;2023-03-15T03:30:52;100082.38;;;-0.33;100.00
68525;BME280;55524;51.380;13.372;2023-03-15T03:33:19;100084.97;;;-0.34;100.00
68525;BME280;55524;51.380;13.372;2023-03-15T03:35:46;100080.63;;;-0.38;100.00
68525;BME280;55524;51.380;13.372;2023-03-15T03:38:13;100080.63;;;-0.38;100.00
68525;BME280;55524;51.380;13.372;2023-03-15T03:40:40;100078.91;;;-0.38;100.00
68525;BME280;55524;51.380;13.372;2023-03-15T03:43:07;100092.75;;;-0.37;100.00
68525;BME280;55524;51.380;13.372;2023-03-15T03:45:34;100093.63;;;-0.43;100.00
68525;BME280;55524;51.380;13.372;2023-03-15T03:48:00;100097.94;;;-0.37;100.00
68525;BME280;55524;51.380;13.372;2023-03-15T03:50:27;100097.06;;;-0.38;100.00
68525;BME280;55524;51.380;13.372;2023-03-15T03:52:53;100108.31;;;-0.45;100.00
68525;BME280;55524;51.380;13.372;2023-03-15T03:55:20;100112.63;;;-0.50;100.00
68525;BME280;55524;51.380;13.372;2023-03-15T03:57:50;100112.63;;;-0.50;100.00
68525;BME280;55524;51.380;13.372;2023-03-15T04:00:17;100117.81;;;-0.50;100.00
68525;BME280;55524;51.380;13.372;2023-03-15T04:02:44;100115.22;;;-0.41;100.00
68525;BME280;55524;51.380;13.372;2023-03-15T04:05:11;100116.09;;;-0.46;100.00
68525;BME280;55524;51.380;13.372;2023-03-15T04:07:38;100123.91;;;-0.37;100.00
68525;BME280;55524;51.380;13.372;2023-03-15T04:10:04;100129.09;;;-0.39;100.00
68525;BME280;55524;51.380;13.372;2023-03-15T04:12:31;100132.53;;;-0.37;100.00
68525;BME280;55524;51.380;13.372;2023-03-15T04:14:57;100142.91;;;-0.41;100.00
68525;BME280;55524;51.380;13.372;2023-03-15T04:17:24;100136.00;;;-0.42;100.00
68525;BME280;55524;51.380;13.372;2023-03-15T04:19:50;100143.78;;;-0.44;100.00
68525;BME280;55524;51.380;13.372;2023-03-15T04:22:16;100148.97;;;-0.50;100.00
68525;BME280;55524;51.380;13.372;2023-03-15T04:24:42;100150.66;;;-0.57;100.00
68525;BME280;55524;51.380;13.372;2023-03-15T04:27:09;100155.00;;;-0.59;100.00
68525;BME280;55524;51.380;13.372;2023-03-15T04:29:43;100155.84;;;-0.60;100.00
68525;BME280;55524;51.380;13.372;2023-03-15T04:32:10;100158.47;;;-0.54;100.00
68525;BME280;55524;51.380;13.372;2023-03-15T04:34:36;100156.72;;;-0.59;100.00
68525;BME280;55524;51.380;13.372;2023-03-15T04:37:04;100161.91;;;-0.61;100.00
68525;BME280;55524;51.380;13.372;2023-03-15T04:39:31;100161.00;;;-0.64;100.00
68525;BME280;55524;51.380;13.372;2023-03-15T04:41:57;100164.50;;;-0.62;100.00
68525;BME280;55524;51.380;13.372;2023-03-15T04:44:24;100164.50;;;-0.61;100.00
68525;BME280;55524;51.380;13.372;2023-03-15T04:46:55;100168.81;;;-0.57;100.00
68525;BME280;55524;51.380;13.372;2023-03-15T04:49:23;100171.44;;;-0.54;100.00
68525;BME280;55524;51.380;13.372;2023-03-15T04:51:49;100170.56;;;-0.56;100.00
68525;BME280;55524;51.380;13.372;2023-03-15T04:54:15;100167.97;;;-0.54;100.00
68525;BME280;55524;51.380;13.372;2023-03-15T04:56:41;100175.75;;;-0.59;100.00
68525;BME280;55524;51.380;13.372;2023-03-15T04:59:08;100176.59;;;-0.57;100.00
68525;BME280;55524;51.380;13.372;2023-03-15T05:01:36;100175.75;;;-0.57;100.00
68525;BME280;55524;51.380;13.372;2023-03-15T05:04:02;100180.09;;;-0.55;100.00
68525;BME280;55524;51.380;13.372;2023-03-15T05:06:29;100187.00;;;-0.52;100.00
68525;BME280;55524;51.380;13.372;2023-03-15T05:08:55;100188.72;;;-0.53;100.00
68525;BME280;55524;51.380;13.372;2023-03-15T05:11:22;100195.66;;;-0.50;100.00
68525;BME280;55524;51.380;13.372;2023-03-15T05:13:49;100198.25;;;-0.55;100.00
68525;BME280;55524;51.380;13.372;2023-03-15T05:16:15;100201.72;;;-0.48;100.00
68525;BME280;55524;51.380;13.372;2023-03-15T05:18:41;100208.69;;;-0.42;100.00
68525;BME280;55524;51.380;13.372;2023-03-15T05:21:10;100197.41;;;-0.40;100.00
68525;BME280;55524;51.380;13.372;2023-03-15T05:23:38;100206.09;;;-0.38;100.00
68525;BME280;55524;51.380;13.372;2023-03-15T05:26:04;100208.69;;;-0.38;100.00
68525;BME280;55524;51.380;13.372;2023-03-15T05:28:31;100210.41;;;-0.37;100.00
68525;BME280;55524;51.380;13.372;2023-03-15T05:30:57;100210.41;;;-0.40;100.00
68525;BME280;55524;51.380;13.372;2023-03-15T05:33:24;100211.28;;;-0.38;100.00
68525;BME280;55524;51.380;13.372;2023-03-15T05:35:50;100221.66;;;-0.39;100.00
68525;BME280;55524;51.380;13.372;2023-03-15T05:38:20;100218.19;;;-0.46;100.00
68525;BME280;55524;51.380;13.372;2023-03-15T05:40:51;100222.47;;;-0.59;100.00
68525;BME280;55524;51.380;13.372;2023-03-15T05:43:18;100238.00;;;-0.63;100.00
68525;BME280;55524;51.380;13.372;2023-03-15T05:45:44;100239.69;;;-0.68;100.00
68525;BME280;55524;51.380;13.372;2023-03-15T05:48:12;100245.78;;;-0.66;100.00
68525;BME280;55524;51.380;13.372;2023-03-15T05:50:38;100244.03;;;-0.69;100.00
68525;BME280;55524;51.380;13.372;2023-03-15T05:53:05;100256.19;;;-0.59;100.00
68525;BME280;55524;51.380;13.372;2023-03-15T05:55:31;100263.97;;;-0.57;100.00
68525;BME280;55524;51.380;13.372;2023-03-15T05:57:57;100257.97;;;-0.41;100.00
68525;BME280;55524;51.380;13.372;2023-03-15T06:00:23;100261.50;;;-0.31;100.00
68525;BME280;55524;51.380;13.372;2023-03-15T06:02:50;100269.31;;;-0.22;100.00
68525;BME280;55524;51.380;13.372;2023-03-15T06:05:16;100266.75;;;-0.16;100.00
68525;BME280;55524;51.380;13.372;2023-03-15T06:07:42;100272.81;;;-0.09;100.00
68525;BME280;55524;51.380;13.372;2023-03-15T06:10:10;100270.25;;;0.06;99.80
68525;BME280;55524;51.380;13.372;2023-03-15T06:12:36;100276.34;;;0.17;99.75
68525;BME280;55524;51.380;13.372;2023-03-15T06:15:03;100286.78;;;0.33;99.16
68525;BME280;55524;51.380;13.372;2023-03-15T06:17:29;100288.50;;;0.47;98.25
68525;BME280;55524;51.380;13.372;2023-03-15T06:19:55;100285.94;;;0.61;97.45
68525;BME280;55524;51.380;13.372;2023-03-15T06:22:22;100292.00;;;0.77;97.56
68525;BME280;55524;51.380;13.372;2023-03-15T06:24:49;100288.53;;;0.84;96.97
68525;BME280;55524;51.380;13.372;2023-03-15T06:27:15;100280.72;;;1.00;96.68
68525;BME280;55524;51.380;13.372;2023-03-15T06:29:47;100285.91;;;1.13;95.58
68525;BME280;55524;51.380;13.372;2023-03-15T06:32:14;100286.75;;;1.31;94.99
68525;BME280;55524;51.380;13.372;2023-03-15T06:34:40;100297.94;;;1.50;94.59
68525;BME280;55524;51.380;13.372;2023-03-15T06:37:06;100302.25;;;1.64;93.88
68525;BME280;55524;51.380;13.372;2023-03-15T06:39:33;100292.69;;;1.68;91.36
68525;BME280;55524;51.380;13.372;2023-03-15T06:41:59;100297.88;;;1.69;91.08
68525;BME280;55524;51.380;13.372;2023-03-15T06:44:27;100317.88;;;1.70;92.29
68525;BME280;55524;51.380;13.372;2023-03-15T06:46:54;100312.66;;;1.67;91.69
68525;BME280;55524;51.380;13.372;2023-03-15T06:49:20;100310.06;;;1.64;91.65
68525;BME280;55524;51.380;13.372;2023-03-15T06:51:46;100314.44;;;1.59;91.73
68525;BME280;55524;51.380;13.372;2023-03-15T06:54:13;100316.16;;;1.57;91.49
68525;BME280;55524;51.380;13.372;2023-03-15T06:56:39;100316.16;;;1.54;91.49
68525;BME280;55524;51.380;13.372;2023-03-15T06:59:05;100334.38;;;1.60;92.88
68525;BME280;55524;51.380;13.372;2023-03-15T07:01:32;100329.13;;;1.79;92.48
68525;BME280;55524;51.380;13.372;2023-03-15T07:03:58;100328.16;;;2.04;92.28
68525;BME280;55524;51.380;13.372;2023-03-15T07:06:24;100328.91;;;2.21;90.77
68525;BME280;55524;51.380;13.372;2023-03-15T07:08:52;100335.81;;;2.38;90.88
68525;BME280;55524;51.380;13.372;2023-03-15T07:11:19;100341.94;;;2.25;89.79
68525;BME280;55524;51.380;13.372;2023-03-15T07:13:46;100339.34;;;2.25;90.67
68525;BME280;55524;51.380;13.372;2023-03-15T07:16:12;100345.41;;;2.30;90.32
68525;BME280;55524;51.380;13.372;2023-03-15T07:18:38;100348.72;;;2.56;90.41
68525;BME280;55524;51.380;13.372;2023-03-15T07:21:05;100338.84;;;3.00;87.57
68525;BME280;55524;51.380;13.372;2023-03-15T07:23:33;100335.84;;;3.42;86.05
68525;BME280;55524;51.380;13.372;2023-03-15T07:25:59;100321.50;;;3.80;83.37
68525;BME280;55524;51.380;13.372;2023-03-15T07:28:26;100305.50;;;5.19;79.48
68525;BME280;55524;51.380;13.372;2023-03-15T07:30:57;100272.22;;;5.71;75.59
68525;BME280;55524;51.380;13.372;2023-03-15T07:33:25;100290.78;;;4.59;75.98
68525;BME280;55524;51.380;13.372;2023-03-15T07:35:52;100316.88;;;4.02;79.01
68525;BME280;55524;51.380;13.372;2023-03-15T07:38:22;100323.44;;;3.61;79.87
68525;BME280;55524;51.380;13.372;2023-03-15T07:40:49;100344.63;;;3.37;80.76
68525;BME280;55524;51.380;13.372;2023-03-15T07:43:16;100361.28;;;3.20;82.52
68525;BME280;55524;51.380;13.372;2023-03-15T07:45:42;100375.38;;;3.01;83.40
68525;BME280;55524;51.380;13.372;2023-03-15T07:48:09;100411.25;;;2.68;87.73
68525;BME280;55524;51.380;13.372;2023-03-15T07:50:36;100411.47;;;2.30;92.52
68525;BME280;55524;51.380;13.372;2023-03-15T07:53:03;100425.41;;;2.09;96.86
68525;BME280;55524;51.380;13.372;2023-03-15T07:55:34;100435.00;;;2.01;98.97
68525;BME280;55524;51.380;13.372;2023-03-15T07:58:01;100434.09;;;2.10;100.00
68525;BME280;55524;51.380;13.372;2023-03-15T08:00:28;100441.97;;;1.96;100.00
68525;BME280;55524;51.380;13.372;2023-03-15T08:02:54;100444.63;;;1.75;100.00
68525;BME280;55524;51.380;13.372;2023-03-15T08:05:20;100450.66;;;1.78;100.00
68525;BME280;55524;51.380;13.372;2023-03-15T08:07:48;100434.22;;;1.64;100.00
68525;BME280;55524;51.380;13.372;2023-03-15T08:10:15;100453.28;;;1.58;100.00
68525;BME280;55524;51.380;13.372;2023-03-15T08:12:42;100447.22;;;1.61;100.00
68525;BME280;55524;51.380;13.372;2023-03-15T08:15:13;100445.50;;;1.61;100.00
68525;BME280;55524;51.380;13.372;2023-03-15T08:17:42;100456.78;;;1.54;100.00
68525;BME280;55524;51.380;13.372;2023-03-15T08:20:10;100457.66;;;1.47;100.00
68525;BME280;55524;51.380;13.372;2023-03-15T08:22:40;100469.81;;;1.36;100.00
68525;BME280;55524;51.380;13.372;2023-03-15T08:25:14;100470.66;;;1.38;100.00
68525;BME280;55524;51.380;13.372;2023-03-15T08:27:41;100468.91;;;1.26;100.00
68525;BME280;55524;51.380;13.372;2023-03-15T08:30:09;100468.94;;;1.28;100.00
68525;BME280;55524;51.380;13.372;2023-03-15T08:32:38;100468.94;;;1.29;100.00
68525;BME280;55524;51.380;13.372;2023-03-15T08:35:05;100471.53;;;1.37;100.00
68525;BME280;55524;51.380;13.372;2023-03-15T08:37:32;100480.19;;;1.46;100.00
68525;BME280;55524;51.380;13.372;2023-03-15T08:39:58;100474.16;;;1.52;100.00
68525;BME280;55524;51.380;13.372;2023-03-15T08:42:35;100466.31;;;1.69;100.00
68525;BME280;55524;51.380;13.372;2023-03-15T08:45:05;100478.47;;;1.88;100.00
68525;BME280;55524;51.380;13.372;2023-03-15T08:47:33;100478.44;;;1.93;100.00
68525;BME280;55524;51.380;13.372;2023-03-15T08:50:05;100485.34;;;2.15;100.00
68525;BME280;55524;51.380;13.372;2023-03-15T08:52:32;100484.47;;;2.22;100.00
68525;BME280;55524;51.380;13.372;2023-03-15T08:54:58;100485.34;;;2.23;100.00
68525;BME280;55524;51.380;13.372;2023-03-15T08:57:24;100482.72;;;2.25;100.00
68525;BME280;55524;51.380;13.372;2023-03-15T08:59:52;100480.16;;;2.18;100.00
68525;BME280;55524;51.380;13.372;2023-03-15T09:02:18;100487.09;;;2.16;100.00
68525;BME280;55524;51.380;13.372;2023-03-15T09:04:45;100487.09;;;2.16;100.00
68525;BME280;55524;51.380;13.372;2023-03-15T09:07:11;100487.09;;;2.18;100.00
68525;BME280;55524;51.380;13.372;2023-03-15T09:09:37;100492.31;;;2.10;100.00
68525;BME280;55524;51.380;13.372;2023-03-15T09:12:04;100499.28;;;2.02;100.00
68525;BME280;55524;51.380;13.372;2023-03-15T09:14:30;100506.25;;;1.82;100.00
68525;BME280;55524;51.380;13.372;2023-03-15T09:16:56;100502.78;;;1.66;100.00
68525;BME280;55524;51.380;13.372;2023-03-15T09:19:23;100516.69;;;1.63;100.00
68525;BME280;55524;51.380;13.372;2023-03-15T09:21:49;100515.81;;;1.69;100.00
68525;BME280;55524;51.380;13.372;2023-03-15T09:24:16;100513.22;;;1.90;100.00
68525;BME280;55524;51.380;13.372;2023-03-15T09:26:43;100519.25;;;2.08;100.00
68525;BME280;55524;51.380;13.372;2023-03-15T09:29:09;100517.50;;;2.13;100.00
68525;BME280;55524;51.380;13.372;2023-03-15T09:31:35;100517.50;;;2.22;100.00
68525;BME280;55524;51.380;13.372;2023-03-15T09:34:02;100516.59;;;2.32;100.00
68525;BME280;55524;51.380;13.372;2023-03-15T09:36:28;100519.16;;;2.46;100.00
68525;BME280;55524;51.380;13.372;2023-03-15T09:38:54;100518.25;;;2.59;100.00
68525;BME280;55524;51.380;13.372;2023-03-15T09:41:43;100525.22;;;2.53;100.00
68525;BME280;55524;51.380;13.372;2023-03-15T09:46:57;100515.53;;;2.85;100.00
68525;BME280;55524;51.380;13.372;2023-03-15T09:49:35;100520.53;;;3.24;100.00
68525;BME280;55524;51.380;13.372;2023-03-15T09:55:11;100517.03;;;3.26;100.00
68525;BME280;55524;51.380;13.372;2023-03-15T09:57:41;100528.91;;;3.72;100.00
68525;BME280;55524;51.380;13.372;2023-03-15T10:00:13;100522.44;;;4.12;100.00
68525;BME280;55524;51.380;13.372;2023-03-15T10:02:56;100529.25;;;4.32;100.00
68525;BME280;55524;51.380;13.372;2023-03-15T10:05:54;100524.44;;;3.83;100.00
68525;BME280;55524;51.380;13.372;2023-03-15T10:08:22;100522.88;;;3.62;100.00
68525;BME280;55524;51.380;13.372;2023-03-15T10:16:54;100537.69;;;3.63;100.00
68525;BME280;55524;51.380;13.372;2023-03-15T10:25:00;100516.78;;;5.20;99.31
68525;BME280;55524;51.380;13.372;2023-03-15T10:27:49;100515.19;;;5.11;92.27
68525;BME280;55524;51.380;13.372;2023-03-15T10:30:21;100513.91;;;5.37;91.50
68525;BME280;55524;51.380;13.372;2023-03-15T10:33:13;100518.78;;;5.01;90.22
68525;BME280;55524;51.380;13.372;2023-03-15T10:35:39;100527.50;;;5.02;90.98
68525;BME280;55524;51.380;13.372;2023-03-15T10:38:18;100522.56;;;4.79;90.76
68525;BME280;55524;51.380;13.372;2023-03-15T10:40:48;100525.50;;;5.21;92.02
68525;BME280;55524;51.380;13.372;2023-03-15T10:43:20;100502.88;;;5.16;85.93
68525;BME280;55524;51.380;13.372;2023-03-15T10:48:27;100507.53;;;4.94;85.83
68525;BME280;55524;51.380;13.372;2023-03-15T10:50:54;100499.72;;;4.91;84.33
68525;BME280;55524;51.380;13.372;2023-03-15T10:53:21;100517.78;;;5.11;84.99
68525;BME280;55524;51.380;13.372;2023-03-15T10:55:58;100497.72;;;4.39;82.77
68525;BME280;55524;51.380;13.372;2023-03-15T10:58:27;100513.53;;;4.32;85.20
68525;BME280;55524;51.380;13.372;2023-03-15T11:01:04;100520.50;;;4.33;86.74
68525;BME280;55524;51.380;13.372;2023-03-15T11:03:36;100526.41;;;4.50;89.70
68525;BME280;55524;51.380;13.372;2023-03-15T11:06:17;100512.41;;;4.56;85.88
68525;BME280;55524;51.380;13.372;2023-03-15T11:08:43;100522.78;;;4.62;87.76
68525;BME280;55524;51.380;13.372;2023-03-15T11:11:10;100521.06;;;4.61;86.23
68525;BME280;55524;51.380;13.372;2023-03-15T11:13:38;100508.22;;;4.38;85.16
68525;BME280;55524;51.380;13.372;2023-03-15T11:16:13;100525.56;;;4.47;88.98
68525;BME280;55524;51.380;13.372;2023-03-15T11:21:17;100506.94;;;4.71;84.13
68525;BME280;55524;51.380;13.372;2023-03-15T11:23:48;100503.03;;;5.04;81.82
68525;BME280;55524;51.380;13.372;2023-03-15T11:26:23;100503.00;;;5.07;82.94
68525;BME280;55524;51.380;13.372;2023-03-15T11:28:56;100517.97;;;4.99;84.15
68525;BME280;55524;51.380;13.372;2023-03-15T11:31:26;100511.88;;;4.97;84.04
68525;BME280;55524;51.380;13.372;2023-03-15T11:36:45;100500.25;;;5.16;82.65
68525;BME280;55524;51.380;13.372;2023-03-15T11:39:14;100502.53;;;5.38;82.68
68525;BME280;55524;51.380;13.372;2023-03-15T11:41:59;100472.88;;;5.36;78.87
68525;BME280;55524;51.380;13.372;2023-03-15T11:44:40;100462.41;;;5.36;76.99
68525;BME280;55524;51.380;13.372;2023-03-15T11:50:00;100472.63;;;5.53;78.75
68525;BME280;55524;51.380;13.372;2023-03-15T11:52:28;100447.75;;;5.24;75.53
68525;BME280;55524;51.380;13.372;2023-03-15T11:54:59;100439.28;;;5.07;73.88
68525;BME280;55524;51.380;13.372;2023-03-15T12:00:25;100480.28;;;5.08;78.49
68525;BME280;55524;51.380;13.372;2023-03-15T12:03:28;100489.94;;;5.03;79.07
68525;BME280;55524;51.380;13.372;2023-03-15T12:10:53;100492.78;;;4.89;78.93
68525;BME280;55524;51.380;13.372;2023-03-15T12:13:25;100511.78;;;5.02;81.71
68525;BME280;55524;51.380;13.372;2023-03-15T12:15:52;100485.13;;;4.74;78.49
68525;BME280;55524;51.380;13.372;2023-03-15T12:18:30;100496.28;;;4.86;79.52
68525;BME280;55524;51.380;13.372;2023-03-15T12:26:37;100486.91;;;4.70;77.52
68525;BME280;55524;51.380;13.372;2023-03-15T12:29:19;100523.69;;;4.59;81.50
68525;BME280;55524;51.380;13.372;2023-03-15T12:31:55;100524.69;;;4.46;82.34
68525;BME280;55524;51.380;13.372;2023-03-15T12:34:50;100529.75;;;4.61;82.91
68525;BME280;55524;51.380;13.372;2023-03-15T12:48:13;100468.00;;;5.13;76.00
68525;BME280;55524;51.380;13.372;2023-03-15T12:55:55;100425.59;;;5.95;71.18
68525;BME280;55524;51.380;13.372;2023-03-15T12:58:35;100409.31;;;6.64;68.76
68525;BME280;55524;51.380;13.372;2023-03-15T13:01:04;100364.41;;;6.36;63.16
68525;BME280;55524;51.380;13.372;2023-03-15T13:03:34;100376.22;;;6.57;64.00
68525;BME280;55524;51.380;13.372;2023-03-15T13:16:47;100377.03;;;6.98;62.66
68525;BME280;55524;51.380;13.372;2023-03-15T13:19:25;100392.94;;;7.29;63.72
68525;BME280;55524;51.380;13.372;2023-03-15T13:22:01;100386.50;;;7.41;62.97
68525;BME280;55524;51.380;13.372;2023-03-15T13:27:51;100360.97;;;7.46;60.23
68525;BME280;55524;51.380;13.372;2023-03-15T13:35:59;100423.50;;;6.55;66.38
68525;BME280;55524;51.380;13.372;2023-03-15T13:40:54;100435.13;;;6.84;66.83
68525;BME280;55524;51.380;13.372;2023-03-15T13:43:25;100437.22;;;6.70;66.56
68525;BME280;55524;51.380;13.372;2023-03-15T13:45:51;100429.06;;;6.40;65.71
68525;BME280;55524;51.380;13.372;2023-03-15T13:48:19;100431.59;;;6.45;65.84
68525;BME280;55524;51.380;13.372;2023-03-15T13:50:49;100406.66;;;6.24;62.49
68525;BME280;55524;51.380;13.372;2023-03-15T13:53:22;100427.16;;;6.05;64.60
68525;BME280;55524;51.380;13.372;2023-03-15T13:55:51;100388.03;;;5.91;61.70
68525;BME280;55524;51.380;13.372;2023-03-15T13:58:20;100386.94;;;6.06;59.98
68525;BME280;55524;51.380;13.372;2023-03-15T14:00:54;100404.88;;;5.78;61.78
68525;BME280;55524;51.380;13.372;2023-03-15T14:03:22;100401.09;;;5.96;60.84
68525;BME280;55524;51.380;13.372;2023-03-15T14:05:51;100427.19;;;6.03;63.69
68525;BME280;55524;51.380;13.372;2023-03-15T14:08:25;100421.66;;;6.19;62.89
68525;BME280;55524;51.380;13.372;2023-03-15T14:19:28;100463.81;;;5.58;65.33
68525;BME280;55524;51.380;13.372;2023-03-15T14:22:00;100470.28;;;5.87;65.93
68525;BME280;55524;51.380;13.372;2023-03-15T14:27:04;100469.97;;;6.05;65.93
68525;BME280;55524;51.380;13.372;2023-03-15T14:29:31;100457.44;;;6.64;65.01
68525;BME280;55524;51.380;13.372;2023-03-15T14:32:01;100467.19;;;6.59;65.72